createdAt,value
2019-04-21T00:01:18.377Z,90.80
2019-04-21T00:03:52.142Z,90.90
2019-04-21T00:06:36.715Z,90.80
2019-04-21T00:09:14.804Z,90.90
2019-04-21T00:12:01.475Z,91.20
2019-04-21T00:14:01.883Z,91.50
2019-04-21T00:16:24.556Z,91.80
2019-04-21T00:19:00.476Z,92.20
2019-04-21T00:21:31.533Z,92.30
2019-04-21T00:24:24.843Z,92.20
2019-04-21T00:27:02.510Z,92.20
2019-04-21T00:29:34.185Z,92.20
2019-04-21T00:31:58.920Z,91.70
2019-04-21T00:34:15.189Z,91.70
2019-04-21T00:36:56.036Z,92.30
2019-04-21T00:39:43.619Z,92.60
2019-04-21T00:42:05.451Z,93.20
2019-04-21T00:44:26.132Z,93.50
2019-04-21T00:47:00.594Z,93.60
2019-04-21T00:49:27.080Z,93.70
2019-04-21T00:52:39.899Z,93.80
2019-04-21T00:55:20.416Z,94.30
2019-04-21T00:57:45.302Z,94.30
2019-04-21T01:00:14.199Z,94.50
2019-04-21T01:02:44.473Z,94.50
2019-04-21T01:05:11.154Z,94.00
2019-04-21T01:07:41.974Z,93.90
2019-04-21T01:10:06.568Z,94.50
2019-04-21T01:12:41.939Z,94.70
2019-04-21T01:15:12.327Z,95.00
2019-04-21T01:17:41.795Z,95.10
2019-04-21T01:20:01.191Z,95.20
2019-04-21T01:22:19.483Z,95.30
2019-04-21T01:24:59.280Z,95.40
2019-04-21T01:27:31.942Z,95.70
2019-04-21T01:30:11.501Z,96.10
2019-04-21T01:32:42.608Z,96.30
2019-04-21T01:35:10.124Z,96.60
2019-04-21T01:37:45.322Z,96.80
2019-04-21T01:40:16.535Z,97.00
2019-04-21T01:42:43.158Z,97.00
2019-04-21T01:45:09.369Z,97.00
2019-04-21T01:47:36.124Z,97.10
2019-04-21T01:49:59.074Z,97.20
2019-04-21T01:52:44.233Z,97.20
2019-04-21T01:55:23.460Z,96.80
2019-04-21T01:57:47.046Z,96.60
2019-04-21T02:00:13.585Z,96.60
2019-04-21T02:02:54.651Z,96.70
2019-04-21T02:07:50.831Z,97.60
2019-04-21T02:10:27.365Z,97.80
2019-04-21T02:13:01.313Z,97.90
2019-04-21T02:15:33.128Z,98.30
2019-04-21T02:17:54.102Z,98.50
2019-04-21T02:20:17.990Z,98.70
2019-04-21T02:23:12.998Z,98.80
2019-04-21T02:25:26.168Z,98.80
2019-04-21T02:28:01.163Z,98.80
2019-04-21T02:30:47.495Z,98.70
2019-04-21T02:33:10.061Z,98.60
2019-04-21T02:35:53.180Z,98.90
2019-04-21T02:38:11.860Z,99.10
2019-04-21T02:40:46.535Z,98.90
2019-04-21T02:45:43.331Z,98.90
2019-04-21T02:48:12.927Z,99.30
2019-04-21T02:50:42.987Z,99.20
2019-04-21T02:53:21.217Z,99.50
2019-04-21T02:55:43.570Z,99.50
2019-04-21T02:58:18.314Z,99.70
2019-04-21T03:01:03.277Z,99.70
2019-04-21T03:03:36.663Z,99.90
2019-04-21T03:06:08.837Z,99.90
2019-04-21T03:11:17.171Z,99.90
2019-04-21T03:16:20.168Z,99.90
2019-04-21T03:18:48.216Z,99.90
2019-04-21T03:23:51.710Z,99.90
2019-04-21T03:26:24.935Z,99.90
2019-04-21T03:28:37.401Z,99.90
2019-04-21T03:31:36.229Z,99.90
2019-04-21T03:36:43.615Z,99.90
2019-04-21T03:41:10.545Z,99.90
2019-04-21T03:43:44.594Z,99.90
2019-04-21T03:46:18.311Z,99.90
2019-04-21T03:48:43.724Z,99.90
2019-04-21T03:51:21.429Z,99.90
2019-04-21T03:53:37.345Z,99.90
2019-04-21T03:56:14.616Z,99.90
2019-04-21T04:04:15.465Z,99.90
2019-04-21T04:06:43.033Z,99.90
2019-04-21T04:09:20.471Z,99.90
2019-04-21T04:11:58.738Z,99.90
2019-04-21T04:14:22.833Z,99.90
2019-04-21T04:19:14.645Z,99.90
2019-04-21T04:22:04.034Z,99.90
2019-04-21T04:26:49.017Z,99.90
2019-04-21T04:31:44.073Z,99.90
2019-04-21T04:34:21.852Z,99.90
2019-04-21T04:42:12.586Z,99.90
2019-04-21T04:44:46.492Z,99.90
2019-04-21T04:47:15.557Z,99.90
2019-04-21T04:49:46.705Z,99.90
2019-04-21T04:52:22.131Z,99.90
2019-04-21T04:54:47.433Z,99.90
2019-04-21T05:07:09.398Z,99.90
2019-04-21T05:09:46.878Z,99.90
2019-04-21T05:12:03.523Z,99.90
2019-04-21T05:14:38.940Z,99.90
2019-04-21T05:17:19.657Z,99.90
2019-04-21T05:19:41.485Z,99.90
2019-04-21T05:22:15.126Z,99.90
2019-04-21T05:24:28.951Z,99.90
2019-04-21T05:26:54.879Z,99.90
2019-04-21T05:29:37.764Z,99.90
2019-04-21T05:32:13.355Z,99.90
2019-04-21T05:34:42.613Z,99.90
2019-04-21T05:37:20.250Z,99.90
2019-04-21T05:39:53.682Z,99.90
2019-04-21T05:42:25.293Z,99.90
2019-04-21T05:47:33.225Z,99.90
2019-04-21T05:50:00.878Z,99.90
2019-04-21T05:52:26.513Z,99.90
2019-04-21T05:55:09.191Z,99.90
2019-04-21T05:57:33.313Z,99.90
2019-04-21T06:00:04.333Z,99.90
2019-04-21T06:02:39.979Z,99.90
2019-04-21T06:07:48.986Z,99.90
2019-04-21T06:10:08.590Z,99.90
2019-04-21T06:12:35.947Z,99.90
2019-04-21T06:15:12.216Z,99.90
2019-04-21T06:17:44.483Z,99.90
2019-04-21T06:20:05.937Z,99.90
2019-04-21T06:22:33.147Z,99.90
2019-04-21T06:25:31.200Z,99.90
2019-04-21T06:27:50.770Z,99.90
2019-04-21T06:30:03.463Z,99.50
2019-04-21T06:32:47.113Z,98.90
2019-04-21T06:35:28.165Z,98.40
2019-04-21T06:38:01.451Z,97.90
2019-04-21T06:40:30.828Z,97.40
2019-04-21T06:43:10.964Z,97.00
2019-04-21T06:45:34.956Z,96.70
2019-04-21T06:48:05.985Z,96.40
2019-04-21T06:50:31.841Z,96.10
2019-04-21T06:53:05.596Z,95.60
2019-04-21T06:55:38.015Z,95.00
2019-04-21T06:58:03.178Z,94.70
2019-04-21T07:00:32.617Z,93.80
2019-04-21T07:03:08.402Z,93.50
2019-04-21T07:05:33.529Z,93.30
2019-04-21T07:08:23.257Z,92.90
2019-04-21T07:10:34.618Z,92.70
2019-04-21T07:13:03.191Z,92.30
2019-04-21T07:15:39.940Z,92.10
2019-04-21T07:18:04.570Z,91.90
2019-04-21T07:20:36.768Z,91.50
2019-04-21T07:23:13.359Z,91.20
2019-04-21T07:25:39.041Z,90.90
2019-04-21T07:28:03.640Z,90.50
2019-04-21T07:30:37.717Z,89.80
2019-04-21T07:33:19.066Z,89.00
2019-04-21T07:35:51.682Z,88.20
2019-04-21T07:38:08.367Z,86.60
2019-04-21T07:40:28.727Z,85.00
2019-04-21T07:43:04.161Z,83.40
2019-04-21T07:45:32.157Z,82.50
2019-04-21T07:48:08.300Z,81.40
2019-04-21T07:51:04.412Z,80.30
2019-04-21T07:53:46.024Z,79.50
2019-04-21T07:55:51.257Z,78.40
2019-04-21T07:58:51.061Z,77.50
2019-04-21T08:01:12.258Z,76.30
2019-04-21T08:03:38.725Z,75.20
2019-04-21T08:06:19.372Z,74.00
2019-04-21T08:08:33.599Z,72.90
2019-04-21T08:11:02.958Z,71.60
2019-04-21T08:13:51.967Z,70.60
2019-04-21T08:16:10.557Z,68.70
2019-04-21T08:18:39.717Z,66.50
2019-04-21T08:21:06.810Z,64.80
2019-04-21T08:23:37.121Z,63.10
2019-04-21T08:26:08.094Z,61.70
2019-04-21T08:28:40.205Z,59.80
2019-04-21T08:31:15.747Z,59.60
2019-04-21T08:36:19.317Z,56.30
2019-04-21T08:38:41.723Z,55.40
2019-04-21T08:46:13.779Z,51.90
2019-04-21T08:48:42.292Z,48.70
2019-04-21T08:51:23.968Z,46.00
2019-04-21T08:53:50.580Z,45.30
2019-04-21T08:56:15.000Z,43.90
2019-04-21T08:58:54.867Z,41.00
2019-04-21T09:01:30.424Z,39.30
2019-04-21T09:04:01.204Z,37.50
2019-04-21T09:06:50.081Z,37.50
2019-04-21T09:09:01.510Z,36.80
2019-04-21T09:11:28.862Z,35.60
2019-04-21T09:14:03.021Z,34.80
2019-04-21T09:16:24.966Z,34.50
2019-04-21T09:18:54.455Z,33.70
2019-04-21T09:21:33.935Z,33.00
2019-04-21T09:23:56.100Z,32.50
2019-04-21T09:26:29.326Z,32.30
2019-04-21T09:28:54.499Z,31.10
2019-04-21T09:31:12.224Z,30.20
2019-04-21T09:33:47.365Z,30.00
2019-04-21T09:36:15.412Z,29.70
2019-04-21T09:38:43.828Z,30.00
2019-04-21T09:41:15.505Z,30.00
2019-04-21T09:43:46.855Z,29.70
2019-04-21T09:46:11.785Z,29.80
2019-04-21T09:48:50.043Z,28.70
2019-04-21T09:51:11.046Z,29.30
2019-04-21T09:53:42.239Z,28.80
2019-04-21T09:56:14.770Z,29.10
2019-04-21T09:58:45.759Z,28.90
2019-04-21T10:01:18.566Z,29.00
2019-04-21T10:03:46.477Z,28.60
2019-04-21T10:06:11.288Z,28.10
2019-04-21T10:08:40.506Z,27.00
2019-04-21T10:11:09.836Z,26.40
2019-04-21T10:13:38.286Z,27.10
2019-04-21T10:16:20.187Z,26.70
2019-04-21T10:18:50.314Z,26.40
2019-04-21T10:21:19.797Z,26.40
2019-04-21T10:23:48.360Z,25.50
2019-04-21T10:26:16.861Z,25.90
2019-04-21T10:28:46.772Z,25.80
2019-04-21T10:31:16.621Z,25.30
2019-04-21T10:33:46.258Z,25.60
2019-04-21T10:36:15.184Z,25.40
2019-04-21T10:38:48.751Z,25.80
2019-04-21T10:41:15.028Z,25.30
2019-04-21T10:43:45.094Z,24.50
2019-04-21T10:46:14.864Z,24.80
2019-04-21T10:48:43.313Z,24.70
2019-04-21T10:51:12.927Z,24.90
2019-04-21T10:53:43.161Z,25.30
2019-04-21T10:56:19.948Z,24.50
2019-04-21T10:58:42.439Z,24.50
2019-04-21T11:01:14.093Z,24.50
2019-04-21T11:03:44.833Z,24.60
2019-04-21T11:06:16.756Z,24.30
2019-04-21T11:08:48.905Z,24.30
2019-04-21T11:11:16.246Z,24.00
2019-04-21T11:13:44.816Z,24.10
2019-04-21T11:16:13.295Z,23.60
2019-04-21T11:18:42.135Z,23.10
2019-04-21T11:21:11.205Z,23.50
2019-04-21T11:23:40.482Z,23.90
2019-04-21T11:26:09.923Z,24.70
2019-04-21T11:28:38.957Z,24.60
2019-04-21T11:31:08.929Z,23.50
2019-04-21T11:33:37.722Z,23.40
2019-04-21T11:36:07.026Z,23.50
2019-04-21T11:38:54.977Z,23.60
2019-04-21T11:41:07.703Z,23.40
2019-04-21T11:43:37.042Z,24.30
2019-04-21T11:46:06.497Z,23.30
2019-04-21T11:48:36.416Z,23.30
2019-04-21T11:51:04.970Z,23.10
2019-04-21T11:53:34.753Z,23.40
2019-04-21T11:56:03.345Z,22.30
2019-04-21T11:58:32.167Z,22.80
2019-04-21T12:01:03.299Z,22.90
2019-04-21T12:03:31.913Z,23.40
2019-04-21T12:06:01.459Z,23.00
2019-04-21T12:08:38.526Z,23.20
2019-04-21T12:11:00.202Z,22.60
2019-04-21T12:13:29.929Z,22.50
2019-04-21T12:15:59.060Z,22.60
2019-04-21T12:18:29.958Z,22.70
2019-04-21T12:20:57.703Z,22.90
2019-04-21T12:23:26.845Z,22.90
2019-04-21T12:25:56.828Z,22.60
2019-04-21T12:28:25.905Z,22.50
2019-04-21T12:30:55.817Z,22.60
2019-04-21T12:33:43.587Z,22.80
2019-04-21T12:36:13.679Z,23.30
2019-04-21T12:38:48.854Z,23.00
2019-04-21T12:41:12.888Z,22.80
2019-04-21T12:43:42.581Z,22.60
2019-04-21T12:46:11.950Z,22.50
2019-04-21T12:48:41.997Z,22.70
2019-04-21T12:51:12.148Z,22.50
2019-04-21T12:53:41.568Z,22.90
2019-04-21T12:56:11.608Z,23.00
2019-04-21T12:58:41.392Z,22.40
2019-04-21T13:01:10.030Z,22.60
2019-04-21T13:03:39.696Z,22.90
2019-04-21T13:06:09.733Z,22.70
2019-04-21T13:08:45.665Z,22.50
2019-04-21T13:11:09.547Z,22.40
2019-04-21T13:13:39.882Z,22.50
2019-04-21T13:16:09.619Z,22.60
2019-04-21T13:18:39.476Z,22.80
2019-04-21T13:21:08.010Z,22.40
2019-04-21T13:23:37.002Z,22.10
2019-04-21T13:26:06.521Z,22.40
2019-04-21T13:28:35.683Z,22.30
2019-04-21T13:31:04.410Z,22.60
2019-04-21T13:33:33.373Z,22.60
2019-04-21T13:36:04.811Z,22.30
2019-04-21T13:38:41.902Z,22.90
2019-04-21T13:41:31.130Z,22.40
2019-04-21T13:43:48.749Z,22.30
2019-04-21T13:46:17.665Z,22.40
2019-04-21T13:48:46.546Z,22.40
2019-04-21T13:51:15.421Z,21.90
2019-04-21T13:53:44.015Z,22.70
2019-04-21T13:56:12.390Z,22.40
2019-04-21T13:58:42.179Z,22.40
2019-04-21T14:01:11.794Z,22.50
2019-04-21T14:03:41.674Z,22.10
2019-04-21T14:06:10.122Z,22.40
2019-04-21T14:08:41.669Z,22.30
2019-04-21T14:11:09.284Z,22.50
2019-04-21T14:13:38.553Z,22.30
2019-04-21T14:16:08.129Z,22.60
2019-04-21T14:18:38.470Z,22.60
2019-04-21T14:21:07.261Z,22.90
2019-04-21T14:23:40.566Z,22.80
2019-04-21T14:26:06.576Z,22.50
2019-04-21T14:28:35.068Z,22.20
2019-04-21T14:31:04.302Z,22.40
2019-04-21T14:33:33.851Z,22.40
2019-04-21T14:36:02.911Z,22.30
2019-04-21T14:38:32.362Z,22.10
2019-04-21T14:41:02.054Z,22.20
2019-04-21T14:43:32.037Z,22.00
2019-04-21T14:46:19.431Z,22.10
2019-04-21T14:49:01.534Z,22.60
2019-04-21T14:51:41.160Z,22.60
2019-04-21T14:54:29.139Z,22.90
2019-04-21T14:56:57.726Z,22.60
2019-04-21T14:59:26.966Z,22.60
2019-04-21T15:01:55.832Z,21.70
2019-04-21T15:04:24.244Z,22.20
2019-04-21T15:06:52.988Z,22.50
2019-04-21T15:09:21.374Z,21.60
2019-04-21T15:11:49.948Z,21.80
2019-04-21T15:14:19.989Z,22.00
2019-04-21T15:16:49.073Z,22.30
2019-04-21T15:19:17.591Z,22.80
2019-04-21T15:21:45.993Z,22.70
2019-04-21T15:24:14.394Z,23.40
2019-04-21T15:26:44.206Z,23.30
2019-04-21T15:29:12.842Z,23.20
2019-04-21T15:31:44.612Z,22.70
2019-04-21T15:34:13.011Z,22.60
2019-04-21T15:36:41.909Z,23.40
2019-04-21T15:39:11.758Z,22.60
2019-04-21T15:41:40.791Z,23.00
2019-04-21T15:44:09.941Z,23.40
2019-04-21T15:46:39.774Z,22.40
2019-04-21T15:49:09.173Z,22.70
2019-04-21T15:51:38.065Z,22.10
2019-04-21T15:54:06.854Z,22.70
2019-04-21T15:56:53.028Z,22.70
2019-04-21T15:59:38.308Z,23.00
2019-04-21T16:02:24.629Z,22.50
2019-04-21T16:04:53.172Z,22.30
2019-04-21T16:07:22.345Z,23.10
2019-04-21T16:09:52.254Z,22.70
2019-04-21T16:12:22.054Z,23.20
2019-04-21T16:14:50.519Z,22.60
2019-04-21T16:17:19.249Z,21.80
2019-04-21T16:19:48.051Z,21.80
2019-04-21T16:22:16.850Z,21.70
2019-04-21T16:24:46.037Z,20.70
2019-04-21T16:27:15.411Z,20.90
2019-04-21T16:29:43.919Z,20.80
2019-04-21T16:32:15.660Z,20.00
2019-04-21T16:34:48.992Z,19.90
2019-04-21T16:37:13.757Z,19.90
2019-04-21T16:39:43.339Z,19.70
2019-04-21T16:42:12.075Z,19.90
2019-04-21T16:44:40.978Z,19.90
2019-04-21T16:47:09.735Z,19.60
2019-04-21T16:49:38.268Z,19.60
2019-04-21T16:52:14.168Z,19.40
2019-04-21T16:54:44.307Z,19.30
2019-04-21T16:57:17.628Z,19.30
2019-04-21T16:59:48.584Z,19.60
2019-04-21T17:02:18.579Z,19.70
2019-04-21T17:04:48.489Z,20.00
2019-04-21T17:07:18.024Z,20.00
2019-04-21T17:09:46.599Z,19.80
2019-04-21T17:12:16.549Z,19.70
2019-04-21T17:14:57.215Z,20.10
2019-04-21T17:17:38.578Z,20.50
2019-04-21T17:19:48.496Z,20.00
2019-04-21T17:22:15.756Z,20.10
2019-04-21T17:24:44.586Z,20.00
2019-04-21T17:27:13.197Z,20.10
2019-04-21T17:29:42.965Z,20.20
2019-04-21T17:32:12.199Z,20.50
2019-04-21T17:34:41.062Z,20.50
2019-04-21T17:37:10.916Z,20.90
2019-04-21T17:39:40.698Z,21.20
2019-04-21T17:42:21.074Z,21.00
2019-04-21T17:44:39.430Z,22.00
2019-04-21T17:47:21.829Z,22.10
2019-04-21T17:49:39.278Z,23.30
2019-04-21T17:52:19.234Z,23.70
2019-04-21T17:54:50.813Z,24.90
2019-04-21T17:57:36.624Z,25.30
2019-04-21T18:02:43.402Z,27.10
2019-04-21T18:05:08.989Z,26.90
2019-04-21T18:07:35.167Z,27.30
2019-04-21T18:10:10.099Z,27.60
2019-04-21T18:12:33.387Z,27.60
2019-04-21T18:15:02.508Z,28.10
2019-04-21T18:17:20.591Z,28.80
2019-04-21T18:19:51.850Z,30.00
2019-04-21T18:22:43.211Z,30.20
2019-04-21T18:25:27.106Z,30.00
2019-04-21T18:27:42.775Z,29.60
2019-04-21T18:30:38.091Z,32.00
2019-04-21T18:33:17.395Z,30.20
2019-04-21T18:35:56.775Z,30.40
2019-04-21T18:38:43.161Z,31.90
2019-04-21T18:40:58.357Z,32.50
2019-04-21T18:44:15.557Z,33.80
2019-04-21T18:46:58.688Z,33.40
2019-04-21T18:49:09.246Z,34.60
2019-04-21T18:51:58.681Z,36.50
2019-04-21T18:54:36.014Z,35.90
2019-04-21T18:56:57.608Z,37.10
2019-04-21T18:59:27.750Z,38.40
2019-04-21T19:01:58.580Z,38.80
2019-04-21T19:04:25.661Z,40.20
2019-04-21T19:07:07.917Z,41.20
2019-04-21T19:10:03.613Z,40.60
2019-04-21T19:12:11.728Z,40.20
2019-04-21T19:14:40.070Z,40.10
2019-04-21T19:17:38.164Z,40.70
2019-04-21T19:20:00.828Z,41.30
2019-04-21T19:22:10.490Z,41.50
2019-04-21T19:24:59.706Z,40.90
2019-04-21T19:27:20.866Z,40.80
2019-04-21T19:29:51.896Z,41.30
2019-04-21T19:32:31.189Z,41.40
2019-04-21T19:34:32.312Z,41.50
2019-04-21T19:37:04.226Z,41.20
2019-04-21T19:39:43.362Z,41.10
2019-04-21T19:42:08.662Z,41.30
2019-04-21T19:44:47.181Z,41.50
2019-04-21T19:47:26.210Z,42.00
2019-04-21T19:49:50.124Z,42.60
2019-04-21T19:52:05.269Z,43.70
2019-04-21T19:54:35.541Z,43.70
2019-04-21T19:57:00.866Z,43.40
2019-04-21T19:59:36.760Z,43.60
2019-04-21T20:02:00.278Z,43.70
2019-04-21T20:04:36.831Z,44.10
2019-04-21T20:07:10.394Z,44.10
2019-04-21T20:09:47.895Z,44.30
2019-04-21T20:12:18.912Z,44.90
2019-04-21T20:14:55.449Z,45.10
2019-04-21T20:17:13.710Z,44.80
2019-04-21T20:19:32.051Z,46.10
2019-04-21T20:22:00.967Z,47.10
2019-04-21T20:24:32.509Z,47.10
2019-04-21T20:27:09.190Z,47.20
2019-04-21T20:29:54.407Z,47.30
2019-04-21T20:32:26.677Z,47.40
2019-04-21T20:34:56.129Z,47.10
2019-04-21T20:37:21.123Z,47.50
2019-04-21T20:39:39.276Z,47.10
2019-04-21T20:42:19.443Z,47.20
2019-04-21T20:44:52.846Z,47.30
2019-04-21T20:47:12.897Z,48.00
2019-04-21T20:49:40.909Z,48.30
2019-04-21T20:52:17.239Z,48.70
2019-04-21T20:54:45.548Z,48.90
2019-04-21T20:57:19.004Z,49.00
2019-04-21T20:59:44.014Z,49.20
2019-04-21T21:02:19.024Z,49.20
2019-04-21T21:04:40.411Z,49.40
2019-04-21T21:07:28.009Z,49.70
2019-04-21T21:09:55.867Z,50.20
2019-04-21T21:14:45.963Z,50.50
2019-04-21T21:17:35.808Z,50.80
2019-04-21T21:19:55.708Z,50.70
2019-04-21T21:22:14.939Z,51.00
2019-04-21T21:24:50.534Z,51.60
2019-04-21T21:27:19.186Z,51.60
2019-04-21T21:29:50.186Z,51.60
2019-04-21T21:32:20.640Z,51.50
2019-04-21T21:34:52.037Z,51.60
2019-04-21T21:37:33.769Z,52.10
2019-04-21T21:39:58.424Z,52.60
2019-04-21T21:42:07.574Z,53.40
2019-04-21T21:44:35.764Z,53.50
2019-04-21T21:47:22.823Z,53.30
2019-04-21T21:49:49.773Z,52.50
2019-04-21T21:52:12.842Z,52.40
2019-04-21T21:54:35.984Z,52.10
2019-04-21T21:57:04.956Z,52.60
2019-04-21T21:59:36.899Z,52.80
2019-04-21T22:02:05.123Z,53.10
2019-04-21T22:04:36.070Z,53.00
2019-04-21T22:07:11.207Z,53.30
2019-04-21T22:09:34.493Z,53.40
2019-04-21T22:12:06.401Z,53.20
2019-04-21T22:14:41.068Z,53.30
2019-04-21T22:17:20.774Z,53.70
2019-04-21T22:20:01.875Z,53.60
2019-04-21T22:22:21.463Z,53.70
2019-04-21T22:24:46.461Z,53.10
2019-04-21T22:27:05.246Z,53.90
2019-04-21T22:29:37.837Z,54.20
2019-04-21T22:32:12.670Z,54.70
2019-04-21T22:34:41.502Z,55.30
2019-04-21T22:37:23.988Z,55.90
2019-04-21T22:39:49.189Z,56.10
2019-04-21T22:42:14.510Z,57.20
2019-04-21T22:44:36.349Z,58.10
2019-04-21T22:47:15.327Z,58.30
2019-04-21T22:49:35.173Z,58.70
2019-04-21T22:52:11.098Z,58.70
2019-04-21T22:54:39.669Z,58.90
2019-04-21T22:57:12.042Z,59.20
2019-04-21T22:59:35.687Z,59.10
2019-04-21T23:02:13.765Z,59.00
2019-04-21T23:04:41.702Z,58.70
2019-04-21T23:07:11.211Z,59.00
2019-04-21T23:09:37.063Z,58.80
2019-04-21T23:12:05.753Z,58.70
2019-04-21T23:14:45.307Z,58.50
2019-04-21T23:17:24.092Z,59.20
2019-04-21T23:19:49.332Z,59.80
2019-04-21T23:22:21.375Z,60.90
2019-04-21T23:24:59.096Z,61.50
2019-04-21T23:27:14.150Z,62.20
2019-04-21T23:29:58.946Z,63.80
2019-04-21T23:32:19.916Z,64.80
2019-04-21T23:34:39.856Z,65.50
2019-04-21T23:37:12.815Z,66.60
2019-04-21T23:39:37.551Z,67.20
2019-04-21T23:42:06.501Z,68.60
2019-04-21T23:44:41.566Z,68.90
2019-04-21T23:47:08.639Z,69.20
2019-04-21T23:49:46.276Z,69.70
2019-04-21T23:52:10.088Z,70.30
2019-04-21T23:54:35.586Z,70.50
2019-04-21T23:57:14.188Z,70.80
2019-04-21T23:59:40.937Z,70.90
